Dobrodošli na spletni strani vremenske postaje Senovo. Vse informacije so informativnega značaja, saj vremenska postaja ni del državne mreže meteoroloških postaj. OBVESTILO: Letni količini padavin navedeni na spletni strani je potrebno prišteti 98,1 mm, zaradi izgube podatkov.


Posebna pozornost v zvezi z vremenskimi dogajanji ni potrebna.    Posebna pozornost v zvezi z vremenskimi dogajanji ni potrebna.

Pogled proti Armezu več informacij Pogled proti Armezu


Lisca več informacij Lisca


Radar strel več informacij blitzortung!


Radar padavin več informacij rain snow radar


Obiščite še:

Template documentation
and downloads

And another site



Weather Underground, zgodovina - Tekstovno

Dnevni povzetek za Avgust 14, 2017 Enote:  Angleško    Metrično   Obe
« Predhodni Dan
Naslednji Dan »
Dnevni Tedenski Mesečni Letni Po meri
  Višja: Nižja: Povprečje:
Temperatura: 83.1 °F 54.1 °F 67.5 °F
Točka rosišča: 63.9 °F 52.7 °F 56.7 °F
Vlažnost: 96 % 40 % 72 %
Hitrost vetra: 4.5 mph 0 mph 1 mph
Sunki vetra: 8.7 mph - -
Veter:- - SSE
Zračni tlak: 30.2 in 30.1 in -
Padavine: 0 in    
Historical Graphs
 
 
Tabelarni podarki za Avgust 14, 2017
Čas Temperatura Točka rosišča Zračni tlak Veter Hitrost vetra Sunki vetra Vlažnost Intenziteta padavin (urna)
00:02 59.7 °F 56.5 °F 30.2 in Calm   0.9 mph 89 % 0 in
00:07 59.7 °F 56.5 °F 30.2 in Calm   0.9 mph 89 % 0 in
00:12 59.5 °F 56.3 °F 30.2 in Calm   0.9 mph 89 % 0 in
00:17 59.4 °F 56.1 °F 30.2 in Calm     89 % 0 in
00:22 59.4 °F 56.5 °F 30.2 in Calm     90 % 0 in
00:27 59.2 °F 56.1 °F 30.2 in Calm     90 % 0 in
00:32 59 °F 56.1 °F 30.2 in Calm     90 % 0 in
00:37 59 °F 56.1 °F 30.2 in Calm     90 % 0 in
00:42 58.8 °F 55.9 °F 30.2 in Calm     90 % 0 in
00:47 58.8 °F 56.1 °F 30.2 in Calm     91 % 0 in
00:52 58.6 °F 55.9 °F 30.2 in Calm     91 % 0 in
00:57 58.5 °F 55.8 °F 30.2 in Calm     91 % 0 in
01:02 58.3 °F 55.8 °F 30.2 in Calm     91 % 0 in
01:07 58.3 °F 55.8 °F 30.2 in Calm     91 % 0 in
01:12 58.1 °F 55.6 °F 30.2 in Calm   1.1 mph 91 % 0 in
01:17 58.1 °F 55.6 °F 30.2 in Calm   1.1 mph 91 % 0 in
01:22 57.9 °F 55.2 °F 30.2 in Calm     91 % 0 in
01:27 57.9 °F 55.2 °F 30.2 in Calm     91 % 0 in
01:32 57.7 °F 55 °F 30.2 in Calm     91 % 0 in
01:37 57.7 °F 55 °F 30.2 in Calm     91 % 0 in
01:42 57.6 °F 55 °F 30.2 in Calm     91 % 0 in
01:47 57.6 °F 55 °F 30.2 in Calm     91 % 0 in
01:52 57.4 °F 55 °F 30.2 in West 0.2 mph 2.2 mph 92 % 0 in
01:57 57.4 °F 54.9 °F 30.2 in WNW 0.6 mph 2.2 mph 91 % 0 in
02:02 57.2 °F 54.9 °F 30.2 in WNW 0.4 mph 2 mph 92 % 0 in
02:07 57 °F 54.7 °F 30.2 in Calm     92 % 0 in
02:12 57 °F 54.7 °F 30.2 in Calm     92 % 0 in
02:17 56.8 °F 54.5 °F 30.2 in Calm     92 % 0 in
02:23 56.8 °F 54.5 °F 30.2 in Calm     92 % 0 in
02:28 56.7 °F 54.3 °F 30.2 in Calm     92 % 0 in
02:33 56.7 °F 54.3 °F 30.2 in Calm     92 % 0 in
02:38 56.5 °F 54.1 °F 30.2 in Calm     92 % 0 in
02:43 56.5 °F 54.5 °F 30.2 in Calm     93 % 0 in
02:48 56.3 °F 54.3 °F 30.2 in Calm     93 % 0 in
02:53 56.3 °F 54.3 °F 30.2 in Calm     93 % 0 in
02:58 56.1 °F 54.1 °F 30.2 in Calm     93 % 0 in
03:03 56.1 °F 54.1 °F 30.2 in Calm     93 % 0 in
03:08 55.9 °F 54 °F 30.2 in Calm     93 % 0 in
03:13 56.1 °F 54.1 °F 30.2 in Calm     93 % 0 in
03:18 55.9 °F 54 °F 30.2 in Calm     93 % 0 in
03:23 55.9 °F 54 °F 30.2 in Calm     93 % 0 in
03:28 55.8 °F 53.8 °F 30.2 in Calm     93 % 0 in
03:33 55.8 °F 53.8 °F 30.2 in Calm     93 % 0 in
03:38 55.6 °F 53.6 °F 30.2 in Calm     93 % 0 in
03:43 55.6 °F 53.6 °F 30.2 in Calm     93 % 0 in
03:48 55.4 °F 53.4 °F 30.2 in Calm     93 % 0 in
03:53 55.4 °F 53.8 °F 30.2 in Calm     94 % 0 in
03:58 55.2 °F 53.4 °F 30.2 in Calm     94 % 0 in
04:03 55.2 °F 53.4 °F 30.2 in Calm     94 % 0 in
04:08 55.2 °F 53.4 °F 30.2 in Calm     94 % 0 in
04:13 55 °F 53.2 °F 30.2 in Calm     94 % 0 in
04:18 55 °F 53.2 °F 30.2 in Calm     94 % 0 in
04:23 54.9 °F 53.2 °F 30.2 in Calm     94 % 0 in
04:28 54.9 °F 53.2 °F 30.2 in Calm     94 % 0 in
04:33 54.9 °F 53.2 °F 30.2 in Calm     94 % 0 in
04:38 54.9 °F 53.2 °F 30.2 in Calm     94 % 0 in
04:43 54.9 °F 53.2 °F 30.2 in Calm     94 % 0 in
04:48 54.7 °F 53.1 °F 30.2 in Calm     94 % 0 in
04:53 54.7 °F 53.1 °F 30.2 in Calm     94 % 0 in
04:58 54.7 °F 53.1 °F 30.2 in Calm     94 % 0 in
05:03 54.7 °F 53.1 °F 30.2 in Calm     94 % 0 in
05:08 54.7 °F 53.1 °F 30.2 in Calm     94 % 0 in
05:13 54.7 °F 53.2 °F 30.2 in Calm     95 % 0 in
05:18 54.5 °F 53.1 °F 30.2 in Calm     95 % 0 in
05:23 54.5 °F 52.9 °F 30.2 in Calm     94 % 0 in
05:28 54.5 °F 52.9 °F 30.2 in Calm     94 % 0 in
05:33 54.5 °F 53.1 °F 30.2 in Calm     95 % 0 in
05:38 54.5 °F 53.1 °F 30.2 in Calm     95 % 0 in
05:43 54.5 °F 53.1 °F 30.2 in Calm     95 % 0 in
05:48 54.5 °F 53.1 °F 30.2 in Calm     95 % 0 in
05:53 54.3 °F 52.9 °F 30.2 in Calm     95 % 0 in
05:58 54.3 °F 52.9 °F 30.2 in Calm     95 % 0 in
05:59 54.3 °F 52.9 °F 30.2 in Calm     95 % 0 in
06:04 54.3 °F 52.9 °F 30.2 in Calm     95 % 0 in
06:09 54.3 °F 52.9 °F 30.2 in Calm     95 % 0 in
06:14 54.3 °F 52.9 °F 30.2 in Calm     95 % 0 in
06:19 54.3 °F 52.9 °F 30.2 in Calm     95 % 0 in
06:24 54.1 °F 52.7 °F 30.2 in Calm     95 % 0 in
06:29 54.1 °F 52.7 °F 30.2 in Calm     95 % 0 in
06:34 54.3 °F 52.9 °F 30.2 in Calm     95 % 0 in
06:39 54.3 °F 52.9 °F 30.2 in Calm     95 % 0 in
06:44 54.5 °F 53.1 °F 30.2 in Calm     95 % 0 in
06:49 54.5 °F 53.1 °F 30.2 in Calm     95 % 0 in
06:54 54.7 °F 53.2 °F 30.2 in Calm     95 % 0 in
06:59 54.7 °F 53.2 °F 30.2 in Calm     95 % 0 in
07:04 55 °F 53.6 °F 30.2 in Calm     95 % 0 in
07:09 55.2 °F 54.1 °F 30.2 in Calm     96 % 0 in
07:14 55.6 °F 54.1 °F 30.2 in Calm     95 % 0 in
07:19 56.1 °F 55 °F 30.2 in Calm     96 % 0 in
07:24 56.5 °F 55.4 °F 30.2 in Calm     96 % 0 in
07:29 56.7 °F 55.6 °F 30.2 in Calm     96 % 0 in
07:34 57 °F 55.9 °F 30.2 in Calm     96 % 0 in
07:39 57.2 °F 56.1 °F 30.2 in Calm     96 % 0 in
07:44 57.6 °F 56.5 °F 30.2 in Calm     96 % 0 in
07:49 57.7 °F 56.7 °F 30.2 in Calm   1.6 mph 96 % 0 in
07:54 58.5 °F 57.4 °F 30.2 in ESE 0.3 mph 2.2 mph 96 % 0 in
07:59 59 °F 57.6 °F 30.2 in ESE 0.5 mph 2.2 mph 95 % 0 in
08:04 59.4 °F 57.9 °F 30.2 in ESE 0.5 mph 2.2 mph 95 % 0 in
08:09 59.7 °F 58.3 °F 30.2 in ESE 0.7 mph 2.2 mph 95 % 0 in
08:14 60.3 °F 58.8 °F 30.2 in ESE 0.9 mph 2.2 mph 95 % 0 in
08:20 60.6 °F 59.2 °F 30.2 in ESE 0.7 mph 2.2 mph 95 % 0 in
08:24 61.2 °F 59.4 °F 30.2 in ESE 0.3 mph 2.5 mph 94 % 0 in
08:29 61.7 °F 60.1 °F 30.2 in ESE 0.3 mph 2.5 mph 94 % 0 in
08:35 62.2 °F 60.3 °F 30.2 in ESE 0.3 mph 2.5 mph 93 % 0 in
08:39 63.1 °F 60.8 °F 30.2 in ESE 0.7 mph 2.5 mph 92 % 0 in
08:45 64.2 °F 61.9 °F 30.2 in ESE 0.7 mph 2.5 mph 92 % 0 in
08:50 65.1 °F 62.4 °F 30.2 in ESE 0.7 mph 3.1 mph 91 % 0 in
08:55 66 °F 63 °F 30.2 in SSE 1.5 mph 3.8 mph 90 % 0 in
09:00 66.6 °F 63.1 °F 30.2 in South 2 mph 3.8 mph 89 % 0 in
09:04 67.3 °F 63.7 °F 30.2 in South 1.5 mph 3.1 mph 88 % 0 in
09:10 68 °F 63.3 °F 30.2 in South 1.3 mph 2.9 mph 85 % 0 in
09:15 68.5 °F 63.5 °F 30.2 in SE 1.6 mph 2.9 mph 84 % 0 in
09:19 69.4 °F 63 °F 30.2 in ESE 1.9 mph 2.9 mph 80 % 0 in
09:25 70 °F 63.5 °F 30.2 in ESE 1.6 mph 2.9 mph 80 % 0 in
09:30 70.3 °F 63.5 °F 30.2 in ESE 1.1 mph 2.5 mph 79 % 0 in
09:34 70.9 °F 63.3 °F 30.2 in SSE 1 mph 2.5 mph 77 % 0 in
09:40 71.4 °F 63.9 °F 30.2 in SSE 1.4 mph 3.6 mph 77 % 0 in
09:44 71.8 °F 63.3 °F 30.2 in SE 1.8 mph 3.6 mph 75 % 0 in
09:49 72.3 °F 63.7 °F 30.2 in SE 1 mph 3.4 mph 74 % 0 in
09:55 72.9 °F 63.3 °F 30.2 in South 1 mph 3.8 mph 72 % 0 in
09:59 73 °F 63.1 °F 30.2 in SW 1.6 mph 3.8 mph 71 % 0 in
10:02 73.2 °F 63.7 °F 30.2 in SW 1.5 mph 3.6 mph 72 % 0 in
10:07 73.6 °F 62.8 °F 30.2 in SW 1.6 mph 4 mph 69 % 0 in
10:12 73.9 °F 63.1 °F 30.2 in SW 2.4 mph 4 mph 69 % 0 in
10:17 74.3 °F 63.5 °F 30.2 in SW 2.5 mph 4 mph 69 % 0 in
10:22 74.3 °F 63.1 °F 30.2 in WSW 2.6 mph 5.4 mph 68 % 0 in
10:27 74.8 °F 63.7 °F 30.2 in SW 3.2 mph 8.5 mph 68 % 0 in
10:32 75.2 °F 63.5 °F 30.2 in SSW 3.1 mph 8.5 mph 67 % 0 in
10:37 75.4 °F 63.1 °F 30.2 in South 2.3 mph 4 mph 66 % 0 in
10:42 75.6 °F 62.4 °F 30.2 in South 1.4 mph 3.6 mph 64 % 0 in
10:47 75.9 °F 63 °F 30.2 in SSE 1.8 mph 4.9 mph 64 % 0 in
10:52 76.3 °F 63.1 °F 30.2 in SSE 2.3 mph 4.9 mph 64 % 0 in
10:57 76.6 °F 62.6 °F 30.2 in SSE 2.8 mph 6.3 mph 62 % 0 in
11:02 77 °F 62.1 °F 30.2 in SSE 3.1 mph 6.3 mph 60 % 0 in
11:07 77.4 °F 63 °F 30.2 in SSE 3 mph 5.8 mph 61 % 0 in
11:12 77.4 °F 60.4 °F 30.2 in SSE 3.6 mph 6.7 mph 56 % 0 in
11:14 77.4 °F 60.4 °F 30.2 in SSE 3.7 mph 6.7 mph 56 % 0 in
11:19 77.9 °F 60.4 °F 30.2 in SE 3.7 mph 6.7 mph 55 % 0 in
11:24 78.4 °F 61 °F 30.2 in ESE 3.2 mph 6 mph 55 % 0 in
11:29 78.8 °F 59.7 °F 30.2 in ESE 2.5 mph 4.9 mph 52 % 0 in
11:34 79.2 °F 59.5 °F 30.2 in East 2 mph 4.3 mph 51 % 0 in
11:39 79.5 °F 59.7 °F 30.2 in East 2.7 mph 6 mph 51 % 0 in
11:44 79.5 °F 59.2 °F 30.2 in East 3.1 mph 6.3 mph 50 % 0 in
11:49 79.9 °F 59.5 °F 30.2 in East 2.7 mph 6.3 mph 50 % 0 in
11:54 80.1 °F 59.2 °F 30.2 in ESE 2.7 mph 6.3 mph 49 % 0 in
11:59 80.2 °F 58.8 °F 30.2 in ESE 2.8 mph 6.3 mph 48 % 0 in
12:04 80.1 °F 58.6 °F 30.2 in ESE 2.8 mph 6.3 mph 48 % 0 in
12:09 80.2 °F 58.3 °F 30.2 in ESE 2.7 mph 6.3 mph 47 % 0 in
12:14 80.4 °F 58.3 °F 30.2 in ESE 3.1 mph 6.3 mph 47 % 0 in
12:19 80.2 °F 57.6 °F 30.2 in ESE 3.6 mph 7.4 mph 46 % 0 in
12:24 80.4 °F 58.3 °F 30.2 in ESE 3.1 mph 7.4 mph 47 % 0 in
12:29 80.6 °F 58.5 °F 30.2 in ESE 2.8 mph 6.5 mph 47 % 0 in
12:34 80.8 °F 58.6 °F 30.2 in SE 3.8 mph 7.8 mph 47 % 0 in
12:39 81 °F 58.3 °F 30.2 in SE 4.5 mph 7.8 mph 46 % 0 in
12:44 80.1 °F 57.4 °F 30.2 in East 3.9 mph 6.3 mph 46 % 0 in
12:49 80.2 °F 57 °F 30.2 in ENE 2.9 mph 5.8 mph 45 % 0 in
12:54 80.6 °F 57.4 °F 30.2 in ENE 2.9 mph 5.8 mph 45 % 0 in
12:59 81.1 °F 58.5 °F 30.2 in East 3.5 mph 8.7 mph 46 % 0 in
13:04 80.6 °F 56.7 °F 30.2 in East 4.3 mph 8.7 mph 44 % 0 in
13:09 80.6 °F 56.7 °F 30.2 in East 3.2 mph 7.8 mph 44 % 0 in
13:14 81 °F 57 °F 30.2 in East 1.4 mph 3.6 mph 44 % 0 in
13:19 81.3 °F 57.4 °F 30.2 in SSE 1.9 mph 4.9 mph 44 % 0 in
13:24 81.1 °F 57.7 °F 30.2 in SSE 2.4 mph 4.9 mph 45 % 0 in
13:29 81.5 °F 58.1 °F 30.2 in ESE 1.9 mph 3.8 mph 45 % 0 in
13:34 81.1 °F 57.7 °F 30.2 in East 1.7 mph 3.4 mph 45 % 0 in
13:39 80.4 °F 57 °F 30.2 in East 2.1 mph 6 mph 45 % 0 in
13:44 79.5 °F 56.3 °F 30.2 in ESE 2.4 mph 6 mph 45 % 0 in
13:49 79 °F 55.8 °F 30.2 in ESE 2.7 mph 5.8 mph 45 % 0 in
13:54 79.5 °F 56.8 °F 30.2 in SE 2.8 mph 5.4 mph 46 % 0 in
13:59 80.1 °F 57.4 °F 30.2 in SW 2.4 mph 4 mph 46 % 0 in
14:04 80.8 °F 58.1 °F 30.2 in North 2 mph 4.9 mph 46 % 0 in
14:09 81.3 °F 57.9 °F 30.2 in East 2.6 mph 6.3 mph 45 % 0 in
14:14 80.8 °F 57.6 °F 30.2 in ESE 2.8 mph 6.3 mph 45 % 0 in
14:19 80.8 °F 57.6 °F 30.2 in South 2.4 mph 6 mph 45 % 0 in
14:24 80.8 °F 57.6 °F 30.2 in SSE 3.5 mph 6 mph 45 % 0 in
14:29 81.7 °F 58.3 °F 30.2 in South 4.5 mph 8.1 mph 45 % 0 in
14:34 82.2 °F 58.8 °F 30.2 in South 3.9 mph 8.1 mph 45 % 0 in
14:39 82.8 °F 58.6 °F 30.2 in SSE 3.1 mph 6.3 mph 44 % 0 in
14:44 82.6 °F 58.5 °F 30.2 in SSE 3.6 mph 6.5 mph 44 % 0 in
14:49 82.2 °F 58.1 °F 30.2 in South 3 mph 6.5 mph 44 % 0 in
14:54 81.3 °F 57.4 °F 30.2 in SW 3.3 mph 6.5 mph 44 % 0 in
14:59 80.6 °F 55.9 °F 30.2 in SSW 3.6 mph 6.5 mph 43 % 0 in
15:04 80.2 °F 56.3 °F 30.2 in SE 2 mph 4.3 mph 44 % 0 in
15:09 80.1 °F 56.1 °F 30.2 in South 1.5 mph 4 mph 44 % 0 in
15:14 80.2 °F 57 °F 30.2 in West 1.9 mph 4.5 mph 45 % 0 in
15:19 80.6 °F 56.7 °F 30.2 in WNW 2.3 mph 5.6 mph 44 % 0 in
15:24 81.1 °F 57.2 °F 30.2 in North 2.4 mph 5.6 mph 44 % 0 in
15:25 81.1 °F 57.2 °F 30.2 in North 2.4 mph 5.6 mph 44 % 0 in
15:30 81.5 °F 57.6 °F 30.2 in ENE 2.5 mph 6 mph 44 % 0 in
15:35 81.1 °F 56.5 °F 30.2 in East 2.8 mph 6 mph 43 % 0 in
15:40 80.8 °F 56.1 °F 30.2 in East 2.4 mph 4.3 mph 43 % 0 in
15:45 80.8 °F 56.1 °F 30.2 in ESE 1.7 mph 4 mph 43 % 0 in
15:50 80.4 °F 55.9 °F 30.2 in South 1.7 mph 5.8 mph 43 % 0 in
15:55 81.1 °F 56.5 °F 30.2 in SSW 2.2 mph 5.8 mph 43 % 0 in
16:00 81.9 °F 57.2 °F 30.2 in SSE 2.1 mph 4.9 mph 43 % 0 in
16:05 81.7 °F 57 °F 30.1 in ESE 1.9 mph 4.9 mph 43 % 0 in
16:10 81.9 °F 57.2 °F 30.1 in East 2.3 mph 4 mph 43 % 0 in
16:15 82 °F 57.4 °F 30.1 in ENE 2.8 mph 5.8 mph 43 % 0 in
16:20 82.6 °F 57.2 °F 30.2 in East 3 mph 5.8 mph 42 % 0 in
16:25 82.9 °F 57.6 °F 30.2 in SE 3 mph 5.8 mph 42 % 0 in
16:30 83.1 °F 57 °F 30.2 in SSE 3.1 mph 5.8 mph 41 % 0 in
16:35 82.8 °F 55.9 °F 30.2 in SE 2.4 mph 4.3 mph 40 % 0 in
16:40 82.4 °F 55.8 °F 30.2 in East 2.5 mph 6.3 mph 40 % 0 in
16:45 82 °F 55.9 °F 30.2 in East 3.1 mph 6.3 mph 41 % 0 in
16:50 82.4 °F 55.8 °F 30.1 in East 2.6 mph 6.3 mph 40 % 0 in
16:55 82.2 °F 56.1 °F 30.1 in East 2.1 mph 5.8 mph 41 % 0 in
17:00 81.5 °F 54.9 °F 30.1 in East 2.5 mph 4.3 mph 40 % 0 in
17:05 81.9 °F 55.2 °F 30.1 in East 1.6 mph 4.3 mph 40 % 0 in
17:10 81.5 °F 55.6 °F 30.1 in ENE 1.1 mph 4.9 mph 41 % 0 in
17:15 81.7 °F 55.8 °F 30.1 in East 1.9 mph 4.9 mph 41 % 0 in
17:20 81.9 °F 55.9 °F 30.2 in ESE 2.4 mph 4.9 mph 41 % 0 in
17:25 81.7 °F 55.8 °F 30.2 in SE 2.8 mph 4.3 mph 41 % 0 in
17:30 81.7 °F 55.8 °F 30.2 in SE 2 mph 4.3 mph 41 % 0 in
17:35 81.5 °F 56.1 °F 30.2 in SE 0.6 mph 2.5 mph 42 % 0 in
17:40 81.1 °F 55.9 °F 30.2 in SE 0.7 mph 3.4 mph 42 % 0 in
17:45 81 °F 55.8 °F 30.2 in ESE 1.1 mph 3.4 mph 42 % 0 in
17:50 80.6 °F 55.9 °F 30.2 in SE 1.3 mph 3.1 mph 43 % 0 in
17:55 80.2 °F 55.8 °F 30.2 in South 1.5 mph 2.7 mph 43 % 0 in
18:00 79.9 °F 55.4 °F 30.2 in South 1.3 mph 2.7 mph 43 % 0 in
18:05 79.2 °F 54.7 °F 30.2 in South 0.6 mph 2.5 mph 43 % 0 in
18:10 78.3 °F 54.7 °F 30.2 in SSW 0.2 mph 1.3 mph 44 % 0 in
18:15 77.7 °F 54.7 °F 30.2 in SSW 0.5 mph 2.7 mph 45 % 0 in
18:20 77.4 °F 54.3 °F 30.2 in SSE 1.5 mph 4 mph 45 % 0 in
18:25 76.8 °F 54.5 °F 30.2 in SSE 1.8 mph 4 mph 46 % 0 in
18:30 76.5 °F 54.7 °F 30.2 in SW 1 mph 3.1 mph 47 % 0 in
18:35 75.9 °F 54.1 °F 30.1 in WSW 1.1 mph 3.1 mph 47 % 0 in
18:40 75.4 °F 54.3 °F 30.1 in WSW 0.8 mph 2.5 mph 48 % 0 in
18:45 75 °F 55 °F 30.1 in NW 0.6 mph 3.1 mph 50 % 0 in
18:47 74.8 °F 54.9 °F 30.1 in NW 0.8 mph 3.1 mph 50 % 0 in
18:52 74.5 °F 55.2 °F 30.1 in NW 1.3 mph 3.1 mph 51 % 0 in
18:57 73.9 °F 55.2 °F 30.1 in NW 1.2 mph 3.1 mph 52 % 0 in
19:02 73.4 °F 56.1 °F 30.1 in WNW 0.6 mph 2.7 mph 55 % 0 in
19:07 72.9 °F 57.2 °F 30.1 in Calm     58 % 0 in
19:12 72.5 °F 56.8 °F 30.1 in NW 0.2 mph 3.1 mph 58 % 0 in
19:17 72 °F 56.5 °F 30.1 in NW 1.2 mph 4.3 mph 58 % 0 in
19:22 71.4 °F 56.8 °F 30.1 in NW 1.5 mph 4.3 mph 60 % 0 in
19:27 71.1 °F 56.8 °F 30.1 in NW 0.9 mph 3.6 mph 61 % 0 in
19:32 70.5 °F 56.8 °F 30.1 in NW 1.1 mph 4 mph 62 % 0 in
19:37 70.2 °F 57 °F 30.2 in NW 1.3 mph 4 mph 63 % 0 in
19:42 69.6 °F 57.4 °F 30.2 in NNW 1.2 mph 3.4 mph 65 % 0 in
19:47 69.4 °F 57.6 °F 30.2 in NNW 0.7 mph 2.9 mph 66 % 0 in
19:52 68.9 °F 57.9 °F 30.2 in North 0.1 mph   68 % 0 in
19:57 68.4 °F 57.4 °F 30.2 in Calm     68 % 0 in
20:02 68 °F 57 °F 30.2 in Calm     68 % 0 in
20:07 67.6 °F 57 °F 30.2 in Calm     69 % 0 in
20:12 67.1 °F 57 °F 30.2 in Calm     70 % 0 in
20:17 66.9 °F 56.8 °F 30.2 in Calm     70 % 0 in
20:22 66.6 °F 56.5 °F 30.2 in Calm     70 % 0 in
20:27 66.2 °F 56.5 °F 30.2 in Calm     71 % 0 in
20:32 66 °F 56.7 °F 30.2 in Calm     72 % 0 in
20:37 65.7 °F 56.8 °F 30.2 in Calm     73 % 0 in
20:42 65.5 °F 57 °F 30.2 in Calm     74 % 0 in
20:47 65.1 °F 56.1 °F 30.2 in Calm     73 % 0 in
20:52 64.9 °F 56.5 °F 30.2 in Calm     74 % 0 in
20:57 64.6 °F 56.5 °F 30.2 in Calm     75 % 0 in
21:02 64.2 °F 56.5 °F 30.2 in Calm     76 % 0 in
21:07 64 °F 56.3 °F 30.2 in Calm     76 % 0 in
21:12 63.7 °F 56.3 °F 30.2 in Calm     77 % 0 in
21:17 63.5 °F 56.1 °F 30.2 in Calm     77 % 0 in
21:18 63.5 °F 56.1 °F 30.2 in Calm     77 % 0 in
21:23 63.3 °F 56.3 °F 30.2 in Calm     78 % 0 in
21:28 63.1 °F 56.1 °F 30.2 in Calm     78 % 0 in
21:33 63 °F 55.9 °F 30.2 in Calm     78 % 0 in
21:38 62.6 °F 55.9 °F 30.2 in Calm     79 % 0 in
21:43 62.4 °F 55.8 °F 30.2 in Calm     79 % 0 in
21:48 62.2 °F 55.9 °F 30.2 in Calm     80 % 0 in
21:53 62.1 °F 56.1 °F 30.2 in Calm     81 % 0 in
21:58 61.9 °F 55.9 °F 30.2 in Calm     81 % 0 in
22:03 61.7 °F 55.8 °F 30.2 in Calm     81 % 0 in
22:08 61.5 °F 55.6 °F 30.2 in Calm     81 % 0 in
22:13 61.3 °F 55.8 °F 30.2 in Calm     82 % 0 in
22:18 61.2 °F 55.6 °F 30.2 in Calm     82 % 0 in
22:24 61 °F 55.4 °F 30.2 in Calm     82 % 0 in
22:29 61 °F 55.4 °F 30.2 in Calm     82 % 0 in
22:34 60.8 °F 55.2 °F 30.2 in Calm     82 % 0 in
22:39 60.6 °F 55.4 °F 30.2 in Calm     83 % 0 in
22:44 60.4 °F 55.2 °F 30.2 in Calm     83 % 0 in
22:49 60.4 °F 55.2 °F 30.2 in Calm     83 % 0 in
22:54 60.3 °F 55.4 °F 30.2 in Calm     84 % 0 in
22:59 60.1 °F 55.2 °F 30.2 in Calm     84 % 0 in
23:04 60.1 °F 54.9 °F 30.2 in Calm     83 % 0 in
23:09 59.9 °F 55 °F 30.2 in Calm     84 % 0 in
23:14 59.7 °F 54.9 °F 30.2 in Calm     84 % 0 in
23:19 59.7 °F 55.2 °F 30.2 in Calm     85 % 0 in
23:24 59.7 °F 54.9 °F 30.2 in Calm     84 % 0 in
23:29 59.5 °F 55 °F 30.2 in Calm     85 % 0 in
23:34 59.4 °F 54.9 °F 30.2 in Calm     85 % 0 in
23:39 59.4 °F 54.9 °F 30.2 in Calm     85 % 0 in
23:44 59.2 °F 54.7 °F 30.2 in Calm     85 % 0 in
23:49 59.2 °F 55 °F 30.2 in Calm     86 % 0 in
23:54 59.2 °F 55 °F 30.2 in Calm     86 % 0 in
23:59 59.2 °F 55.2 °F 30.2 in Calm     87 % 0 in
Vremenska postaja Senovo
Podatki zbrani iz Weather Underground - 3 mb

Script developed by  Jim McMurry - jmcmurry@mwt.net Adapted for the template by  Wim van der Kuil - Leuven-Template.eu

Vremenski podatki so objavljeni na:

WeatherCloud

Weather Underground

AWEKAS

HAMweather, WeatherForYou, PWS Weather

MapView

Geostik

Slovenia weather network

Oprema, ki se uporablja:

Vremenski program
Cumulus

Cumulus